createdAt,value
2023-05-15T00:02:10.480Z,16.42
2023-05-15T00:04:37.309Z,15.40
2023-05-15T00:07:04.450Z,16.15
2023-05-15T00:09:31.398Z,17.23
2023-05-15T00:12:00.434Z,17.33
2023-05-15T00:14:27.142Z,16.77
2023-05-15T00:16:56.944Z,18.95
2023-05-15T00:19:23.853Z,17.02
2023-05-15T00:21:50.642Z,17.63
2023-05-15T00:24:17.460Z,18.27
2023-05-15T00:26:48.650Z,18.77
2023-05-15T00:29:18.072Z,19.92
2023-05-15T00:31:47.635Z,19.98
2023-05-15T00:34:17.523Z,20.95
2023-05-15T00:36:51.420Z,24.30
2023-05-15T00:39:18.383Z,21.13
2023-05-15T00:41:48.537Z,20.30
2023-05-15T00:44:22.988Z,20.52
2023-05-15T00:46:53.404Z,19.83
2023-05-15T00:49:27.660Z,17.73
2023-05-15T00:54:28.341Z,17.25
2023-05-15T00:57:01.819Z,17.23
2023-05-15T00:59:31.921Z,17.38
2023-05-15T01:01:59.217Z,20.48
2023-05-15T01:04:26.393Z,25.35
2023-05-15T01:07:01.885Z,24.83
2023-05-15T01:09:32.411Z,27.38
2023-05-15T01:12:02.445Z,34.33
2023-05-15T01:14:29.269Z,34.78
2023-05-15T01:16:58.826Z,40.95
2023-05-15T01:19:29.102Z,39.67
2023-05-15T01:22:31.742Z,42.35
2023-05-15T01:25:54.774Z,40.58
2023-05-15T01:28:40.106Z,40.95
2023-05-15T01:31:24.483Z,41.17
2023-05-15T01:34:02.920Z,43.70
2023-05-15T01:36:51.726Z,44.00
2023-05-15T01:39:32.892Z,49.08
2023-05-15T01:42:19.414Z,52.33
2023-05-15T01:45:08.354Z,48.63
2023-05-15T01:47:50.330Z,52.35
2023-05-15T01:50:21.486Z,55.58
2023-05-15T01:53:06.073Z,54.00
2023-05-15T01:58:07.569Z,47.60
2023-05-15T02:00:38.273Z,45.53
2023-05-15T02:03:10.167Z,48.70
2023-05-15T02:05:39.402Z,59.13
2023-05-15T02:08:10.888Z,55.67
2023-05-15T02:10:39.553Z,51.47
2023-05-15T02:13:11.481Z,51.53
2023-05-15T02:15:39.270Z,53.00
2023-05-15T02:18:12.321Z,47.47
2023-05-15T02:20:39.083Z,46.63
2023-05-15T02:23:09.164Z,54.10
2023-05-15T02:26:16.211Z,50.75
2023-05-15T02:29:18.426Z,60.88
2023-05-15T02:32:24.047Z,47.97
2023-05-15T02:35:47.948Z,49.20
2023-05-15T02:38:42.092Z,54.13
2023-05-15T02:41:12.085Z,51.90
2023-05-15T02:43:46.939Z,50.83
2023-05-15T02:46:15.410Z,55.17
2023-05-15T02:48:56.788Z,65.72
2023-05-15T02:51:26.134Z,58.22
2023-05-15T02:53:55.118Z,66.95
2023-05-15T02:56:22.370Z,60.15
2023-05-15T02:58:49.722Z,65.93
2023-05-15T03:01:16.536Z,61.78
2023-05-15T03:03:43.366Z,57.25
2023-05-15T03:06:10.298Z,58.35
2023-05-15T03:08:37.006Z,52.22
2023-05-15T03:11:05.507Z,53.60
2023-05-15T03:13:32.486Z,76.47
2023-05-15T03:16:02.077Z,69.15
2023-05-15T03:18:28.965Z,52.08
2023-05-15T03:20:55.966Z,50.75
2023-05-15T03:23:22.925Z,53.85
2023-05-15T03:25:49.826Z,49.72
2023-05-15T03:28:16.770Z,50.92
2023-05-15T03:30:49.198Z,66.28
2023-05-15T03:33:16.026Z,82.13
2023-05-15T03:35:42.918Z,64.03
2023-05-15T03:38:09.677Z,79.63
2023-05-15T03:40:42.045Z,54.83
2023-05-15T03:43:08.937Z,71.38
2023-05-15T03:45:41.855Z,63.22
2023-05-15T03:48:08.868Z,77.40
2023-05-15T03:50:40.296Z,76.43
2023-05-15T03:53:07.664Z,67.38
2023-05-15T03:55:38.564Z,74.18
2023-05-15T03:58:19.214Z,73.57
2023-05-15T04:00:46.537Z,67.68
2023-05-15T04:03:13.804Z,57.05
2023-05-15T04:05:40.995Z,66.75
2023-05-15T04:08:10.042Z,58.15
2023-05-15T04:10:42.754Z,55.05
2023-05-15T04:13:09.513Z,59.72
2023-05-15T04:15:54.719Z,55.05
2023-05-15T04:18:21.514Z,55.47
2023-05-15T04:20:48.554Z,58.53
2023-05-15T04:23:16.779Z,59.08
2023-05-15T04:25:46.707Z,57.17
2023-05-15T04:28:14.970Z,63.05
2023-05-15T04:30:42.181Z,73.50
2023-05-15T04:33:09.026Z,74.97
2023-05-15T04:35:35.862Z,64.43
2023-05-15T05:37:38.751Z,15.57
2023-05-15T05:59:19.581Z,11.82
2023-05-15T06:15:43.094Z,13.00
2023-05-15T06:18:09.929Z,14.27
2023-05-15T06:21:02.113Z,16.02
2023-05-15T06:23:28.967Z,13.95
2023-05-15T06:25:58.598Z,16.15
2023-05-15T06:28:26.394Z,16.42
2023-05-15T06:31:02.053Z,26.63
2023-05-15T06:33:29.208Z,27.15
2023-05-15T06:35:56.251Z,25.98
2023-05-15T06:38:23.036Z,17.67
2023-05-15T06:40:49.794Z,17.85
2023-05-15T06:43:16.583Z,17.10
2023-05-15T06:45:43.376Z,18.67
2023-05-15T06:48:10.140Z,20.02
2023-05-15T06:50:37.204Z,19.48
2023-05-15T06:53:08.471Z,19.25
2023-05-15T06:55:36.537Z,18.25
2023-05-15T06:58:03.308Z,20.13
2023-05-15T07:00:30.971Z,21.75
2023-05-15T07:02:57.969Z,24.73
2023-05-15T07:05:25.325Z,25.65
2023-05-15T07:07:55.719Z,18.45
2023-05-15T07:10:22.703Z,18.55
2023-05-15T07:12:54.885Z,15.88
2023-05-15T07:15:24.371Z,14.05
2023-05-15T07:17:51.787Z,14.38
2023-05-15T07:20:21.876Z,14.13
2023-05-15T07:22:56.462Z,13.15
2023-05-15T07:25:25.828Z,12.13
2023-05-15T07:27:54.216Z,9.60
2023-05-15T07:30:21.367Z,9.32
2023-05-15T07:32:48.164Z,10.48
2023-05-15T07:35:15.454Z,11.52
2023-05-15T07:37:42.350Z,30.05
2023-05-15T07:40:09.770Z,47.97
2023-05-15T07:42:36.528Z,13.20
2023-05-15T07:45:03.404Z,53.13
2023-05-15T07:47:33.423Z,16.35
2023-05-15T07:50:00.507Z,11.05
2023-05-15T07:52:29.805Z,10.38
2023-05-15T07:54:59.152Z,10.85
2023-05-15T07:57:26.538Z,15.85
2023-05-15T07:59:56.689Z,9.18
2023-05-15T08:02:23.949Z,9.50
2023-05-15T08:04:50.817Z,9.75
2023-05-15T08:07:17.720Z,9.85
2023-05-15T08:09:44.802Z,13.80
2023-05-15T08:12:23.654Z,9.48
2023-05-15T08:14:56.882Z,12.32
2023-05-15T08:17:25.927Z,15.30
2023-05-15T08:19:56.120Z,10.52
2023-05-15T08:22:23.251Z,14.05
2023-05-15T08:24:50.369Z,12.35
2023-05-15T08:27:17.588Z,12.23
2023-05-15T08:29:45.089Z,10.07
2023-05-15T08:32:11.976Z,8.07
2023-05-15T08:34:41.097Z,8.50
2023-05-15T08:37:11.610Z,10.80
2023-05-15T08:39:41.096Z,6.90
2023-05-15T08:42:55.114Z,7.03
2023-05-15T08:45:22.819Z,7.15
2023-05-15T08:47:49.956Z,8.35
2023-05-15T08:50:17.772Z,10.30
2023-05-15T08:52:49.697Z,8.15
2023-05-15T08:55:17.997Z,9.60
2023-05-15T08:57:49.012Z,13.23
2023-05-15T09:00:21.804Z,13.32
2023-05-15T09:02:48.702Z,8.93
2023-05-15T09:05:15.809Z,8.07
2023-05-15T09:07:50.773Z,7.07
2023-05-15T09:10:21.661Z,7.57
2023-05-15T09:13:03.658Z,8.93
2023-05-15T09:15:33.322Z,7.47
2023-05-15T09:18:12.610Z,9.00
2023-05-15T09:20:45.384Z,8.00
2023-05-15T09:23:32.179Z,9.07
2023-05-15T09:26:02.940Z,5.45
2023-05-15T09:28:33.903Z,9.23
2023-05-15T09:31:11.991Z,5.97
2023-05-15T09:34:12.096Z,7.25
2023-05-15T09:36:45.064Z,5.50
2023-05-15T09:39:31.803Z,8.40
2023-05-15T09:42:15.384Z,6.07
2023-05-15T09:44:44.589Z,8.25
2023-05-15T09:47:16.962Z,12.23
2023-05-15T09:49:45.518Z,13.32
2023-05-15T09:52:19.376Z,7.03
2023-05-15T09:57:34.893Z,7.55
2023-05-15T10:00:14.761Z,7.22
2023-05-15T10:02:50.973Z,6.85
2023-05-15T10:05:28.632Z,6.57
2023-05-15T10:08:03.486Z,7.63
2023-05-15T10:10:31.828Z,8.23
2023-05-15T10:13:08.256Z,6.93
2023-05-15T10:15:36.314Z,7.78
2023-05-15T10:18:21.722Z,8.63
2023-05-15T10:20:49.844Z,15.40
2023-05-15T10:23:20.740Z,7.22
2023-05-15T10:26:13.375Z,10.88
2023-05-15T10:28:46.813Z,8.90
2023-05-15T10:31:20.334Z,8.98
2023-05-15T10:33:54.302Z,10.65
2023-05-15T10:36:22.293Z,12.48
2023-05-15T10:38:51.580Z,11.63
2023-05-15T10:41:23.914Z,12.88
2023-05-15T10:44:03.388Z,11.45
2023-05-15T10:46:35.727Z,11.23
2023-05-15T10:49:10.571Z,13.20
2023-05-15T10:51:44.436Z,15.95
2023-05-15T10:54:15.011Z,14.32
2023-05-15T10:56:59.979Z,14.15
2023-05-15T10:59:41.537Z,15.55
2023-05-15T11:02:29.836Z,24.98
2023-05-15T11:05:14.435Z,22.77
2023-05-15T11:07:45.494Z,19.70
2023-05-15T11:10:32.660Z,20.52
2023-05-15T11:13:02.622Z,17.17
2023-05-15T11:15:47.509Z,15.73
2023-05-15T11:18:20.006Z,9.75
2023-05-15T11:21:01.331Z,9.35
2023-05-15T11:23:44.806Z,6.30
2023-05-15T11:26:17.007Z,6.65
2023-05-15T11:28:55.440Z,6.13
2023-05-15T11:31:37.122Z,5.25
2023-05-15T11:34:10.763Z,7.93
2023-05-15T11:39:15.372Z,5.45
2023-05-15T11:41:43.415Z,5.60
2023-05-15T11:44:12.069Z,7.47
2023-05-15T11:46:40.712Z,7.97
2023-05-15T11:49:11.356Z,5.78
2023-05-15T11:51:46.674Z,6.07
2023-05-15T11:54:17.839Z,6.05
2023-05-15T11:57:27.695Z,9.50
2023-05-15T11:59:57.911Z,6.40
2023-05-15T12:02:25.027Z,6.03
2023-05-15T12:05:00.474Z,7.78
2023-05-15T12:07:27.285Z,7.20
2023-05-15T12:09:58.079Z,5.35
2023-05-15T12:12:32.241Z,5.32
2023-05-15T12:15:00.196Z,5.72
2023-05-15T12:17:33.307Z,4.65
2023-05-15T12:20:08.928Z,5.50
2023-05-15T12:22:39.670Z,4.88
2023-05-15T12:25:10.921Z,4.43
2023-05-15T12:27:40.933Z,6.20
2023-05-15T12:30:21.855Z,3.70
2023-05-15T12:32:50.400Z,4.28
2023-05-15T12:35:20.511Z,4.45
2023-05-15T12:37:47.512Z,4.78
2023-05-15T12:40:15.849Z,5.00
2023-05-15T12:42:45.609Z,5.32
2023-05-15T12:45:19.817Z,4.45
2023-05-15T12:47:51.194Z,6.05
2023-05-15T12:50:23.446Z,5.18
2023-05-15T12:52:55.620Z,4.63
2023-05-15T12:58:19.350Z,4.32
2023-05-15T13:00:48.005Z,4.50
2023-05-15T13:03:18.483Z,5.90
2023-05-15T13:05:46.593Z,5.53
2023-05-15T13:08:26.998Z,4.45
2023-05-15T13:11:01.101Z,7.32
2023-05-15T13:14:00.556Z,6.13
2023-05-15T13:16:36.868Z,3.97
2023-05-15T13:19:06.692Z,5.45
2023-05-15T13:21:36.461Z,5.68
2023-05-15T13:24:04.363Z,5.88
2023-05-15T13:26:32.293Z,6.00
2023-05-15T13:29:02.171Z,7.30
2023-05-15T13:31:29.513Z,5.90
2023-05-15T13:33:56.798Z,4.93
2023-05-15T13:36:23.768Z,5.18
2023-05-15T13:38:54.227Z,5.05
2023-05-15T13:41:21.205Z,5.68
2023-05-15T13:43:49.467Z,4.80
2023-05-15T13:46:18.886Z,4.95
2023-05-15T13:48:45.791Z,5.15
2023-05-15T13:51:15.710Z,5.43
2023-05-15T13:53:47.087Z,5.40
2023-05-15T13:56:21.717Z,5.90
2023-05-15T13:58:48.466Z,6.63
2023-05-15T14:01:15.345Z,9.32
2023-05-15T14:03:44.453Z,6.53
2023-05-15T14:06:14.335Z,5.72
2023-05-15T14:08:52.927Z,6.35
2023-05-15T14:11:25.601Z,5.65
2023-05-15T14:13:52.762Z,7.40
2023-05-15T14:16:28.821Z,6.18
2023-05-15T14:18:55.845Z,6.72
2023-05-15T14:21:28.037Z,5.38
2023-05-15T14:24:05.590Z,5.80
2023-05-15T14:26:49.250Z,6.35
2023-05-15T14:29:16.104Z,5.43
2023-05-15T14:31:50.559Z,6.30
2023-05-15T14:34:30.969Z,5.38
2023-05-15T14:36:58.070Z,5.30
2023-05-15T14:39:28.415Z,5.80
2023-05-15T14:41:57.742Z,5.72
2023-05-15T14:44:24.846Z,5.63
2023-05-15T14:47:25.114Z,6.20
2023-05-15T14:49:52.138Z,5.25
2023-05-15T14:52:24.518Z,6.15
2023-05-15T14:55:08.075Z,5.68
2023-05-15T14:57:43.509Z,5.38
2023-05-15T15:00:15.752Z,6.05
2023-05-15T15:02:51.425Z,5.35
2023-05-15T15:05:24.358Z,5.70
2023-05-15T15:08:10.826Z,6.13
2023-05-15T15:11:06.910Z,5.57
2023-05-15T15:13:36.848Z,5.70
2023-05-15T15:16:05.556Z,4.50
2023-05-15T15:18:47.278Z,6.80
2023-05-15T15:21:27.471Z,5.30
2023-05-15T15:24:00.698Z,5.32
2023-05-15T15:27:00.984Z,5.97
2023-05-15T15:29:39.135Z,5.40
2023-05-15T15:32:09.245Z,5.47
2023-05-15T15:34:36.423Z,5.30
2023-05-15T15:37:10.848Z,5.25
2023-05-15T15:39:40.695Z,5.25
2023-05-15T15:42:07.691Z,5.07
2023-05-15T15:44:34.914Z,6.13
2023-05-15T15:47:09.222Z,8.23
2023-05-15T15:49:36.208Z,4.55
2023-05-15T15:52:11.432Z,4.55
2023-05-15T15:54:55.760Z,4.38
2023-05-15T15:57:31.319Z,4.03
2023-05-15T15:59:58.295Z,4.88
2023-05-15T16:02:28.589Z,3.53
2023-05-15T16:04:58.668Z,3.67
2023-05-15T16:07:27.967Z,3.78
2023-05-15T16:10:10.882Z,3.83
2023-05-15T16:12:42.443Z,3.63
2023-05-15T16:15:26.281Z,3.47
2023-05-15T16:17:57.825Z,3.90
2023-05-15T16:20:44.888Z,4.40
2023-05-15T16:23:18.933Z,4.47
2023-05-15T16:25:45.840Z,4.07
2023-05-15T16:28:15.401Z,4.22
2023-05-15T16:30:51.548Z,6.05
2023-05-15T16:33:32.935Z,7.97
2023-05-15T16:35:59.913Z,7.85
2023-05-15T16:38:27.126Z,5.35
2023-05-15T16:40:56.754Z,9.00
2023-05-15T16:43:39.259Z,7.95
2023-05-15T16:46:11.371Z,9.98
2023-05-15T16:48:38.294Z,15.30
2023-05-15T16:51:09.697Z,19.55
2023-05-15T16:53:48.365Z,11.13
2023-05-15T16:56:15.866Z,19.08
2023-05-15T16:58:47.392Z,22.50
2023-05-15T17:01:14.737Z,10.02
2023-05-15T17:04:05.614Z,21.75
2023-05-15T17:06:32.901Z,19.40
2023-05-15T17:09:03.070Z,10.70
2023-05-15T17:11:44.750Z,21.35
2023-05-15T17:14:11.668Z,6.43
2023-05-15T17:16:38.806Z,11.02
2023-05-15T17:19:08.987Z,11.25
2023-05-15T17:21:41.141Z,10.93
2023-05-15T17:24:11.920Z,5.93
2023-05-15T17:26:47.829Z,7.38
2023-05-15T17:29:14.852Z,9.80
2023-05-15T17:31:44.344Z,11.93
2023-05-15T17:34:11.623Z,9.55
2023-05-15T17:36:50.405Z,6.72
2023-05-15T17:39:17.480Z,5.03
2023-05-15T17:41:47.000Z,6.35
2023-05-15T17:44:13.801Z,6.30
2023-05-15T17:46:43.687Z,5.25
2023-05-15T17:49:10.865Z,7.60
2023-05-15T17:51:43.810Z,8.93
2023-05-15T17:54:10.623Z,10.50
2023-05-15T17:56:37.640Z,8.75
2023-05-15T17:59:06.923Z,7.47
2023-05-15T18:01:33.854Z,7.38
2023-05-15T18:04:11.707Z,8.98
2023-05-15T18:06:39.136Z,8.07
2023-05-15T18:09:12.212Z,8.75
2023-05-15T18:11:45.212Z,9.32
2023-05-15T18:14:12.205Z,8.05
2023-05-15T18:16:39.280Z,8.35
2023-05-15T18:19:10.469Z,9.80
2023-05-15T18:21:38.103Z,9.48
2023-05-15T18:24:07.930Z,8.98
2023-05-15T18:26:34.960Z,9.30
2023-05-15T18:29:01.991Z,11.05
2023-05-15T18:31:32.477Z,10.15
2023-05-15T18:34:01.256Z,9.68
2023-05-15T18:36:31.466Z,10.85
2023-05-15T18:38:58.514Z,9.45
2023-05-15T18:41:30.982Z,9.65
2023-05-15T18:43:57.855Z,10.68
2023-05-15T18:46:28.509Z,12.80
2023-05-15T18:48:58.687Z,10.07
2023-05-15T18:51:35.871Z,10.23
2023-05-15T18:54:02.766Z,10.10
2023-05-15T18:56:29.763Z,11.40
2023-05-15T18:58:56.858Z,12.88
2023-05-15T19:01:31.614Z,12.65
2023-05-15T19:03:58.481Z,12.85
2023-05-15T19:06:31.193Z,10.07
2023-05-15T19:08:58.033Z,10.25
2023-05-15T19:11:25.180Z,10.20
2023-05-15T19:13:52.217Z,10.50
2023-05-15T19:16:19.149Z,10.00
2023-05-15T19:18:46.207Z,10.65
2023-05-15T19:21:18.591Z,11.27
2023-05-15T19:23:58.332Z,11.52
2023-05-15T19:26:31.132Z,10.98
2023-05-15T19:29:02.148Z,12.13
2023-05-15T19:31:34.838Z,11.98
2023-05-15T19:34:01.876Z,10.55
2023-05-15T19:36:28.778Z,10.85
2023-05-15T19:39:01.361Z,12.00
2023-05-15T19:41:31.517Z,11.88
2023-05-15T19:44:06.449Z,10.65
2023-05-15T19:46:33.328Z,10.73
2023-05-15T19:49:02.475Z,9.35
2023-05-15T19:51:33.162Z,9.55
2023-05-15T19:54:14.065Z,9.27
2023-05-15T19:56:41.864Z,11.18
2023-05-15T19:59:32.416Z,9.02
2023-05-15T20:02:02.930Z,8.77
2023-05-15T20:04:30.353Z,10.65
2023-05-15T20:07:00.436Z,9.98
2023-05-15T20:09:44.407Z,10.02
2023-05-15T20:12:11.632Z,9.77
2023-05-15T20:14:38.765Z,9.73
2023-05-15T20:17:32.533Z,9.02
2023-05-15T20:20:00.073Z,9.07
2023-05-15T20:22:36.728Z,7.35
2023-05-15T20:25:06.563Z,11.32
2023-05-15T20:27:34.151Z,7.53
2023-05-15T20:30:14.953Z,7.80
2023-05-15T20:33:06.409Z,12.52
2023-05-15T20:35:38.279Z,8.90
2023-05-15T20:38:11.369Z,7.60
2023-05-15T20:40:46.918Z,7.38
2023-05-15T20:43:29.349Z,7.38
2023-05-15T20:46:02.658Z,7.70
2023-05-15T20:48:32.633Z,8.57
2023-05-15T20:51:12.570Z,8.10
2023-05-15T20:53:39.631Z,7.20
2023-05-15T20:56:09.652Z,7.43
2023-05-15T20:58:36.505Z,7.38
2023-05-15T21:01:07.739Z,9.18
2023-05-15T21:03:35.299Z,7.47
2023-05-15T21:06:11.086Z,8.68
2023-05-15T21:08:38.125Z,7.80
2023-05-15T21:11:20.879Z,7.38
2023-05-15T21:13:59.620Z,8.00
2023-05-15T21:21:15.138Z,8.57
2023-05-15T21:24:11.686Z,10.85
2023-05-15T21:26:39.796Z,8.90
2023-05-15T21:29:10.124Z,8.25
2023-05-15T21:31:40.715Z,7.88
2023-05-15T21:34:41.891Z,7.75
2023-05-15T21:37:01.600Z,8.18
2023-05-15T21:39:32.050Z,9.20
2023-05-15T21:41:58.966Z,8.23
2023-05-15T21:44:25.937Z,9.82
2023-05-15T21:46:55.263Z,7.88
2023-05-15T21:49:24.696Z,7.43
2023-05-15T21:52:13.986Z,8.32
2023-05-15T21:54:44.566Z,9.80
2023-05-15T21:57:14.355Z,9.43
2023-05-15T21:59:44.781Z,11.65
2023-05-15T22:02:11.939Z,8.13
2023-05-15T22:04:44.403Z,10.02
2023-05-15T22:07:15.269Z,9.00
2023-05-15T22:09:45.084Z,8.38
2023-05-15T22:12:16.648Z,9.63
2023-05-15T22:14:57.825Z,10.85
2023-05-15T22:17:29.259Z,10.32
2023-05-15T22:20:11.619Z,9.80
2023-05-15T22:22:47.747Z,8.52
2023-05-15T22:25:14.853Z,12.48
2023-05-15T22:27:46.802Z,13.50
2023-05-15T22:30:14.018Z,9.65
2023-05-15T22:32:51.396Z,11.80
2023-05-15T22:35:19.129Z,10.68
2023-05-15T22:37:49.186Z,10.82
2023-05-15T22:40:16.140Z,10.77
2023-05-15T22:42:43.012Z,10.88
2023-05-15T22:45:20.505Z,11.05
2023-05-15T22:47:51.286Z,14.00
2023-05-15T22:50:27.604Z,13.73
2023-05-15T22:53:24.041Z,10.93
2023-05-15T22:55:51.142Z,10.45
2023-05-15T22:58:21.499Z,11.05
2023-05-15T23:00:48.642Z,12.35
2023-05-15T23:03:18.236Z,9.75
2023-05-15T23:06:03.222Z,12.73
2023-05-15T23:08:46.176Z,12.27
2023-05-15T23:11:16.148Z,10.60
2023-05-15T23:14:03.162Z,12.93
2023-05-15T23:16:36.706Z,9.50
2023-05-15T23:19:06.704Z,11.55
2023-05-15T23:21:44.581Z,11.15
2023-05-15T23:24:11.421Z,11.20
2023-05-15T23:26:38.650Z,10.93
2023-05-15T23:29:14.981Z,9.60
2023-05-15T23:31:56.328Z,9.40
2023-05-15T23:34:26.041Z,11.50
2023-05-15T23:37:01.185Z,12.30
2023-05-15T23:39:38.511Z,12.27
2023-05-15T23:42:12.595Z,10.77
2023-05-15T23:44:40.791Z,13.57
2023-05-15T23:47:28.924Z,8.55
2023-05-15T23:50:21.160Z,12.95
2023-05-15T23:52:51.481Z,10.90
2023-05-15T23:55:21.640Z,8.23
2023-05-15T23:57:51.628Z,8.40
